createdAt,value
2023-03-23T00:01:01.500Z,100171.92
2023-03-23T00:02:07.311Z,100171.52
2023-03-23T00:03:12.843Z,100166.31
2023-03-23T00:04:22.541Z,100162.04
2023-03-23T00:05:28.075Z,100163.82
2023-03-23T00:06:34.532Z,100157.95
2023-03-23T00:07:41.310Z,100150
2023-03-23T00:08:47.236Z,100143.64
2023-03-23T00:10:02.364Z,100151.34
2023-03-23T00:11:07.754Z,100147.66
2023-03-23T00:12:13.254Z,100154.34
2023-03-23T00:13:18.884Z,100147.66
2023-03-23T00:14:24.729Z,100146.64
2023-03-23T00:15:30.265Z,100147.84
2023-03-23T00:16:35.841Z,100144.08
2023-03-23T00:17:41.573Z,100146.42
2023-03-23T00:18:47.553Z,100148.7
2023-03-23T00:19:53.240Z,100145.16
2023-03-23T00:20:58.697Z,100145.91
2023-03-23T00:22:04.141Z,100146.35
2023-03-23T00:23:10.042Z,100142.67
2023-03-23T00:24:15.640Z,100144.48
2023-03-23T00:25:21.376Z,100141.29
2023-03-23T00:26:26.928Z,100145.56
2023-03-23T00:27:32.582Z,100142.22
2023-03-23T00:28:38.162Z,100142.73
2023-03-23T00:29:43.536Z,100144.3
2023-03-23T00:30:48.918Z,100143.06
2023-03-23T00:31:54.465Z,100135.11
2023-03-23T00:32:59.949Z,100141.73
2023-03-23T00:34:05.533Z,100142.39
2023-03-23T00:35:11.887Z,100137.94
2023-03-23T00:36:17.301Z,100138.8
2023-03-23T00:37:23.669Z,100147.24
2023-03-23T00:38:30.187Z,100140.95
2023-03-23T00:39:35.958Z,100142.3
2023-03-23T00:40:41.767Z,100140.62
2023-03-23T00:41:47.215Z,100147.02
2023-03-23T00:42:52.880Z,100147.09
2023-03-23T00:43:58.223Z,100141.2
2023-03-23T00:45:03.910Z,100146.56
2023-03-23T00:46:09.399Z,100143.41
2023-03-23T00:47:14.789Z,100137.52
2023-03-23T00:48:20.423Z,100147.58
2023-03-23T00:49:26.296Z,100141.47
2023-03-23T00:50:39.960Z,100147.5
2023-03-23T00:51:45.594Z,100142.95
2023-03-23T00:52:51.147Z,100138.86
2023-03-23T00:53:56.534Z,100144.73
2023-03-23T00:55:01.938Z,100140.45
2023-03-23T00:56:07.338Z,100132.02
2023-03-23T00:57:12.787Z,100128.83
2023-03-23T00:58:18.369Z,100128.75
2023-03-23T00:59:23.820Z,100130.09
2023-03-23T01:00:29.172Z,100124.32
2023-03-23T01:01:34.817Z,100121.53
2023-03-23T01:02:40.196Z,100118.96
2023-03-23T01:03:45.860Z,100119.53
2023-03-23T01:04:51.385Z,100112.75
2023-03-23T01:05:56.794Z,100119.2
2023-03-23T01:07:02.241Z,100110.09
2023-03-23T01:08:07.620Z,100118.13
2023-03-23T01:09:12.989Z,100119.46
2023-03-23T01:10:22.191Z,100111.87
2023-03-23T01:11:27.632Z,100115.11
2023-03-23T01:12:33.272Z,100111.42
2023-03-23T01:13:38.976Z,100104.67
2023-03-23T01:14:44.933Z,100110.52
2023-03-23T01:15:50.372Z,100105.4
2023-03-23T01:16:56.465Z,100103.23
2023-03-23T01:18:02.092Z,100109.2
2023-03-23T01:19:07.463Z,100109.61
2023-03-23T01:20:12.863Z,100109.95
2023-03-23T01:21:18.465Z,100102.84
2023-03-23T01:22:23.895Z,100103.73
2023-03-23T01:23:29.268Z,100103.06
2023-03-23T01:24:34.650Z,100104.07
2023-03-23T01:25:40.828Z,100115.79
2023-03-23T01:26:46.686Z,100111.62
2023-03-23T01:27:52.056Z,100109.27
2023-03-23T01:28:57.823Z,100105.59
2023-03-23T01:30:03.309Z,100104.34
2023-03-23T01:31:16.032Z,100108.2
2023-03-23T01:32:21.441Z,100101.25
2023-03-23T01:33:28.514Z,100103.16
2023-03-23T01:34:33.924Z,100103.38
2023-03-23T01:35:39.566Z,100098.14
2023-03-23T01:36:45.390Z,100094.63
2023-03-23T01:37:50.795Z,100089.69
2023-03-23T01:38:56.159Z,100089.84
2023-03-23T01:40:01.603Z,100087.84
2023-03-23T01:41:07.018Z,100080.55
2023-03-23T01:42:12.696Z,100082.62
2023-03-23T01:43:18.454Z,100080.47
2023-03-23T01:44:24.348Z,100075.59
2023-03-23T01:45:29.707Z,100076.38
2023-03-23T01:46:35.084Z,100077.22
2023-03-23T01:47:40.440Z,100076.62
2023-03-23T01:48:48.450Z,100069.85
2023-03-23T01:49:53.928Z,100074.47
2023-03-23T01:50:59.327Z,100070.86
2023-03-23T01:52:04.845Z,100071.19
2023-03-23T01:53:10.762Z,100064.5
2023-03-23T01:54:16.129Z,100070.27
2023-03-23T01:55:21.515Z,100069.52
2023-03-23T01:56:27.454Z,100072.13
2023-03-23T01:57:33.006Z,100071.91
2023-03-23T01:58:38.657Z,100077.22
2023-03-23T01:59:44.796Z,100070.86
2023-03-23T02:00:50.802Z,100064.81
2023-03-23T02:01:57.116Z,100068.5
2023-03-23T02:03:03.369Z,100068.83
2023-03-23T02:04:08.739Z,100059.86
2023-03-23T02:05:14.109Z,100065
2023-03-23T02:06:19.997Z,100066.91
2023-03-23T02:07:25.477Z,100063.56
2023-03-23T02:08:31.157Z,100067.17
2023-03-23T02:09:36.662Z,100063.23
2023-03-23T02:10:42.126Z,100063.89
2023-03-23T02:11:56.840Z,100053.44
2023-03-23T02:13:02.240Z,100056.29
2023-03-23T02:14:07.671Z,100060.14
2023-03-23T02:15:13.113Z,100043.15
2023-03-23T02:16:18.770Z,100055.13
2023-03-23T02:17:24.537Z,100053.53
2023-03-23T02:18:30.077Z,100049.77
2023-03-23T02:19:35.470Z,100046.83
2023-03-23T02:20:40.966Z,100054.44
2023-03-23T02:21:46.312Z,100049.35
2023-03-23T02:22:51.894Z,100046.94
2023-03-23T02:23:57.438Z,100043.24
2023-03-23T02:25:02.891Z,100044.25
2023-03-23T02:26:08.581Z,100039.91
2023-03-23T02:27:14.081Z,100046.34
2023-03-23T02:28:21.066Z,100038.72
2023-03-23T02:29:33.162Z,100028.86
2023-03-23T02:30:38.767Z,100029.68
2023-03-23T02:31:44.821Z,100024.58
2023-03-23T02:32:50.192Z,100025.84
2023-03-23T02:33:55.638Z,100024.41
2023-03-23T02:35:01.224Z,100025
2023-03-23T02:36:07.047Z,100022.66
2023-03-23T02:37:12.818Z,100022.58
2023-03-23T02:38:18.170Z,100023.58
2023-03-23T02:39:24.076Z,100022.58
2023-03-23T02:40:30.413Z,100027.94
2023-03-23T02:41:36.315Z,100028.09
2023-03-23T02:42:41.780Z,100031.62
2023-03-23T02:43:47.776Z,100022.19
2023-03-23T02:44:53.281Z,100021.59
2023-03-23T02:45:58.886Z,100015.08
2023-03-23T02:47:04.315Z,100018.58
2023-03-23T02:48:10.700Z,100016.64
2023-03-23T02:49:16.162Z,100019.84
2023-03-23T02:50:22.288Z,100021.93
2023-03-23T02:51:28.006Z,100023.6
2023-03-23T02:52:47.462Z,100023.19
2023-03-23T02:53:53.064Z,100020.77
2023-03-23T02:54:58.436Z,100022.45
2023-03-23T02:56:04.213Z,100018.39
2023-03-23T02:57:09.775Z,100021.48
2023-03-23T02:58:15.476Z,100011.11
2023-03-23T02:59:20.945Z,100019.63
2023-03-23T03:00:26.783Z,100023.73
2023-03-23T03:01:33.647Z,100023.23
2023-03-23T03:02:40.642Z,100018.13
2023-03-23T03:03:47.050Z,100022.72
2023-03-23T03:04:53.162Z,100023.16
2023-03-23T03:06:00.284Z,100020.56
2023-03-23T03:07:05.820Z,100013.45
2023-03-23T03:08:11.560Z,100021.39
2023-03-23T03:09:17.263Z,100013.36
2023-03-23T03:10:22.695Z,100014.63
2023-03-23T03:11:28.275Z,100009.79
2023-03-23T03:12:34.307Z,100001.31
2023-03-23T03:13:41.165Z,100009.79
2023-03-23T03:14:47.024Z,100008.86
2023-03-23T03:15:53.424Z,100009.59
2023-03-23T03:16:59.480Z,100006.43
2023-03-23T03:18:04.965Z,100014.22
2023-03-23T03:19:10.932Z,100004.32
2023-03-23T03:20:17.018Z,100008.26
2023-03-23T03:21:23.371Z,100010.34
2023-03-23T03:22:29.199Z,100001.89
2023-03-23T03:23:34.557Z,100002.83
2023-03-23T03:24:40.443Z,100004.3
2023-03-23T03:25:45.974Z,100006.16
2023-03-23T03:26:51.342Z,100004.91
2023-03-23T03:27:57.288Z,100003.16
2023-03-23T03:29:03.109Z,100006.84
2023-03-23T03:30:08.572Z,100012.12
2023-03-23T03:31:14.145Z,100002.84
2023-03-23T03:32:20.275Z,100012.21
2023-03-23T03:33:26.033Z,99996.81
2023-03-23T03:34:31.434Z,100001.16
2023-03-23T03:35:36.830Z,99993.94
2023-03-23T03:36:42.782Z,99997.47
2023-03-23T03:37:48.953Z,99993.78
2023-03-23T03:38:54.311Z,99989.59
2023-03-23T03:40:00.515Z,99997.95
2023-03-23T03:41:06.970Z,99998.48
2023-03-23T03:42:12.763Z,99998.29
2023-03-23T03:43:18.936Z,100000.5
2023-03-23T03:44:24.596Z,99996.55
2023-03-23T03:45:30.444Z,99994.13
2023-03-23T03:46:36.215Z,99991.38
2023-03-23T03:47:41.560Z,99994.73
2023-03-23T03:48:47.683Z,99992.87
2023-03-23T03:49:53.103Z,99989.7
2023-03-23T03:50:58.433Z,99996.06
2023-03-23T03:52:04.103Z,99999.16
2023-03-23T03:53:09.740Z,99991.53
2023-03-23T03:54:15.536Z,99987.78
2023-03-23T03:55:23.199Z,99994.62
2023-03-23T03:56:29.105Z,99993.47
2023-03-23T03:57:35.552Z,99997.56
2023-03-23T03:58:40.986Z,99994.4
2023-03-23T03:59:47.106Z,99993.55
2023-03-23T04:00:53.935Z,100002.02
2023-03-23T04:02:00.395Z,99993.39
2023-03-23T04:03:06.138Z,99993.22
2023-03-23T04:04:11.589Z,99994.83
2023-03-23T04:05:17.067Z,99989.48
2023-03-23T04:06:23.100Z,99993.67
2023-03-23T04:07:29.292Z,99992.23
2023-03-23T04:08:35.793Z,99989.48
2023-03-23T04:09:41.395Z,99990.75
2023-03-23T04:10:47.119Z,99988.21
2023-03-23T04:11:52.962Z,99987.98
2023-03-23T04:12:58.707Z,99983.97
2023-03-23T04:14:04.334Z,99989.47
2023-03-23T04:15:11.212Z,99993.84
2023-03-23T04:16:17.461Z,99995.09
2023-03-23T04:17:24.161Z,99996.36
2023-03-23T04:18:29.699Z,99990.07
2023-03-23T04:19:36.018Z,99990.81
2023-03-23T04:20:41.554Z,99997.02
2023-03-23T04:21:47.033Z,99998.43
2023-03-23T04:22:52.982Z,99996.83
2023-03-23T04:23:59.413Z,99995
2023-03-23T04:25:06.322Z,99993.75
2023-03-23T04:26:12.822Z,99987.66
2023-03-23T04:27:18.862Z,99999.25
2023-03-23T04:28:24.289Z,99994.16
2023-03-23T04:29:32.330Z,99988.63
2023-03-23T04:30:37.665Z,99988.52
2023-03-23T04:31:43.826Z,99987.11
2023-03-23T04:32:49.927Z,99989.02
2023-03-23T04:34:00.968Z,99987.92
2023-03-23T04:35:15.377Z,99984.53
2023-03-23T04:36:21.329Z,99987.55
2023-03-23T04:38:00.008Z,99983.05
2023-03-23T04:39:08.380Z,99981.45
2023-03-23T04:40:14.013Z,99979.11
2023-03-23T04:41:19.658Z,99965.72
2023-03-23T04:42:25.222Z,99968.13
2023-03-23T04:43:30.546Z,99977.17
2023-03-23T04:44:35.901Z,99965.64
2023-03-23T04:45:41.599Z,99966.13
2023-03-23T04:46:47.472Z,99960.78
2023-03-23T04:47:52.812Z,99965.31
2023-03-23T04:48:58.874Z,99965.31
2023-03-23T04:50:04.449Z,99967.39
2023-03-23T04:51:10.517Z,99964.23
2023-03-23T04:52:15.880Z,99958.35
2023-03-23T04:53:21.313Z,99957.94
2023-03-23T04:54:26.829Z,99955.52
2023-03-23T04:55:32.180Z,99958.93
2023-03-23T04:56:37.605Z,99950.31
2023-03-23T04:57:42.948Z,99948.05
2023-03-23T04:58:48.342Z,99948.96
2023-03-23T04:59:53.728Z,99954.84
2023-03-23T05:00:59.291Z,99947.58
2023-03-23T05:02:16.290Z,99951.73
2023-03-23T05:03:33.414Z,99955.25
2023-03-23T05:04:38.750Z,99947.17
2023-03-23T05:05:44.718Z,99946.98
2023-03-23T05:06:50.066Z,99954.94
2023-03-23T05:07:59.533Z,99953.08
2023-03-23T05:09:04.913Z,99950.05
2023-03-23T05:10:10.269Z,99944.09
2023-03-23T05:11:15.603Z,99952.79
2023-03-23T05:12:20.958Z,99953.31
2023-03-23T05:13:26.318Z,99957.47
2023-03-23T05:14:38.996Z,99953.09
2023-03-23T05:15:45.383Z,99941.7
2023-03-23T05:16:52.567Z,99948.04
2023-03-23T05:17:57.917Z,99948.29
2023-03-23T05:19:03.275Z,99947.09
2023-03-23T05:20:08.624Z,99950.61
2023-03-23T05:21:14.001Z,99947.74
2023-03-23T05:22:19.334Z,99939.3
2023-03-23T05:23:24.673Z,99943.48
2023-03-23T05:24:30.015Z,99938.45
2023-03-23T05:25:35.367Z,99938.78
2023-03-23T05:26:40.726Z,99935.41
2023-03-23T05:27:46.072Z,99935.3
2023-03-23T05:28:53.895Z,99940.09
2023-03-23T05:30:06.304Z,99935.14
2023-03-23T05:31:11.673Z,99935.8
2023-03-23T05:32:17.074Z,99937.88
2023-03-23T05:33:22.400Z,99937.55
2023-03-23T05:34:27.719Z,99941.08
2023-03-23T05:35:33.116Z,99942.3
2023-03-23T05:36:38.525Z,99943.75
2023-03-23T05:37:43.926Z,99938.8
2023-03-23T05:38:49.252Z,99941.29
2023-03-23T05:39:54.579Z,99941.37
2023-03-23T05:40:59.944Z,99940.03
2023-03-23T05:42:05.352Z,99933.94
2023-03-23T05:43:10.700Z,99939.62
2023-03-23T05:44:16.028Z,99933.33
2023-03-23T05:45:21.365Z,99928.91
2023-03-23T05:46:26.727Z,99926.5
2023-03-23T05:47:32.127Z,99936.8
2023-03-23T05:48:37.461Z,99929.78
2023-03-23T05:49:42.794Z,99933.47
2023-03-23T05:50:48.142Z,99926.86
2023-03-23T05:51:53.742Z,99926.03
2023-03-23T05:52:59.079Z,99936.84
2023-03-23T05:54:04.403Z,99934.84
2023-03-23T05:55:09.733Z,99936.27
2023-03-23T05:56:15.094Z,99932.84
2023-03-23T05:57:20.774Z,99942.83
2023-03-23T05:58:28.759Z,99938.15
2023-03-23T05:59:34.529Z,99946.27
2023-03-23T06:00:48.571Z,99942.73
2023-03-23T06:01:53.987Z,99945.94
2023-03-23T06:02:59.366Z,99941.59
2023-03-23T06:04:04.922Z,99941.19
2023-03-23T06:05:10.371Z,99941.51
2023-03-23T06:06:15.930Z,99943.78
2023-03-23T06:07:21.291Z,99938.91
2023-03-23T06:08:26.667Z,99947.63
2023-03-23T06:09:32.005Z,99938.26
2023-03-23T06:10:37.390Z,99940.33
2023-03-23T06:11:42.733Z,99937.98
2023-03-23T06:12:48.057Z,99942.94
2023-03-23T06:13:53.386Z,99941.92
2023-03-23T06:14:58.750Z,99942.44
2023-03-23T06:16:04.180Z,99941.19
2023-03-23T06:17:09.504Z,99942.03
2023-03-23T06:18:14.866Z,99936.92
2023-03-23T06:19:20.195Z,99940.36
2023-03-23T06:20:25.846Z,99934.78
2023-03-23T06:21:31.244Z,99936.89
2023-03-23T06:22:36.581Z,99936.89
2023-03-23T06:23:41.927Z,99935.38
2023-03-23T06:24:47.259Z,99928.52
2023-03-23T06:26:05.759Z,99932.95
2023-03-23T06:27:11.419Z,99928.61
2023-03-23T06:28:20.687Z,99924.78
2023-03-23T06:29:26.057Z,99918.08
2023-03-23T06:30:31.376Z,99913.3
2023-03-23T06:31:43.374Z,99914.31
2023-03-23T06:32:48.710Z,99913.41
2023-03-23T06:33:54.081Z,99913.55
2023-03-23T06:34:59.458Z,99908.11
2023-03-23T06:36:04.986Z,99920.98
2023-03-23T06:37:10.392Z,99913.27
2023-03-23T06:38:15.791Z,99915.79
2023-03-23T06:39:21.165Z,99911.6
2023-03-23T06:40:26.538Z,99919.09
2023-03-23T06:41:31.875Z,99921.85
2023-03-23T06:42:37.383Z,99922.67
2023-03-23T06:43:42.747Z,99922.2
2023-03-23T06:44:48.108Z,99925.22
2023-03-23T06:45:53.425Z,99930.48
2023-03-23T06:46:58.805Z,99924.88
2023-03-23T06:48:04.171Z,99931.93
2023-03-23T06:49:09.662Z,99927.09
2023-03-23T06:50:15.059Z,99935.88
2023-03-23T06:51:20.486Z,99938.8
2023-03-23T06:52:25.854Z,99934.61
2023-03-23T06:53:31.197Z,99929.66
2023-03-23T06:54:36.528Z,99924.63
2023-03-23T06:55:44.176Z,99933.18
2023-03-23T06:56:49.533Z,99931.61
2023-03-23T06:57:54.895Z,99926.89
2023-03-23T06:59:00.258Z,99922.31
2023-03-23T07:00:05.597Z,99928.77
2023-03-23T07:01:13.393Z,99923.81
2023-03-23T07:02:18.735Z,99915.52
2023-03-23T07:03:24.110Z,99917.59
2023-03-23T07:04:29.429Z,99918.11
2023-03-23T07:05:34.849Z,99917.5
2023-03-23T07:06:40.186Z,99921.52
2023-03-23T07:07:45.523Z,99918.92
2023-03-23T07:08:50.833Z,99919.45
2023-03-23T07:09:56.164Z,99922.13
2023-03-23T07:11:01.504Z,99915.23
2023-03-23T07:12:06.861Z,99918.16
2023-03-23T07:13:12.251Z,99920.52
2023-03-23T07:14:17.592Z,99920.19
2023-03-23T07:15:25.032Z,99910.48
2023-03-23T07:16:30.394Z,99916.22
2023-03-23T07:17:35.759Z,99908.24
2023-03-23T07:18:41.105Z,99918.88
2023-03-23T07:19:46.478Z,99911.84
2023-03-23T07:20:51.826Z,99910.59
2023-03-23T07:21:57.143Z,99913.55
2023-03-23T07:23:02.480Z,99905.34
2023-03-23T07:24:07.804Z,99916.63
2023-03-23T07:25:13.135Z,99912.81
2023-03-23T07:26:18.636Z,99902.59
2023-03-23T07:27:24.015Z,99907.94
2023-03-23T07:28:29.368Z,99914.23
2023-03-23T07:29:34.701Z,99913.05
2023-03-23T07:30:40.059Z,99917.07
2023-03-23T07:31:45.402Z,99916.83
2023-03-23T07:32:50.777Z,99916.91
2023-03-23T07:33:56.149Z,99919.91
2023-03-23T07:35:01.738Z,99926.63
2023-03-23T07:36:13.913Z,99927.23
2023-03-23T07:37:19.391Z,99922.73
2023-03-23T07:38:24.915Z,99915.61
2023-03-23T07:39:30.318Z,99917.94
2023-03-23T07:40:35.661Z,99916.11
2023-03-23T07:41:41.010Z,99920.05
2023-03-23T07:42:46.362Z,99926.3
2023-03-23T07:43:51.694Z,99923.73
2023-03-23T07:44:57.081Z,99923.14
2023-03-23T07:46:02.439Z,99919.77
2023-03-23T07:47:07.784Z,99918.52
2023-03-23T07:48:22.468Z,99920.45
2023-03-23T07:49:27.781Z,99926.83
2023-03-23T07:50:40.192Z,99926.83
2023-03-23T07:51:45.513Z,99916.71
2023-03-23T07:52:50.833Z,99918.95
2023-03-23T07:53:56.178Z,99911.84
2023-03-23T07:55:01.635Z,99921.22
2023-03-23T07:56:07.048Z,99921.14
2023-03-23T07:57:12.387Z,99926.41
2023-03-23T07:58:17.755Z,99921.21
2023-03-23T07:59:23.112Z,99922.06
2023-03-23T08:00:28.775Z,99916.27
2023-03-23T08:01:34.102Z,99917.72
2023-03-23T08:02:39.442Z,99919.95
2023-03-23T08:03:45.822Z,99925.91
2023-03-23T08:04:52.385Z,99934.35
2023-03-23T08:05:57.740Z,99929.33
2023-03-23T08:07:03.091Z,99933.13
2023-03-23T08:08:08.467Z,99926.51
2023-03-23T08:09:13.916Z,99927.25
2023-03-23T08:10:19.292Z,99927.25
2023-03-23T08:11:24.691Z,99936.89
2023-03-23T08:12:30.056Z,99935.14
2023-03-23T08:13:35.412Z,99939.65
2023-03-23T08:14:40.807Z,99932.87
2023-03-23T08:15:46.262Z,99937.7
2023-03-23T08:16:51.621Z,99934.46
2023-03-23T08:17:56.932Z,99927.25
2023-03-23T08:19:10.281Z,99924.77
2023-03-23T08:20:15.666Z,99919.22
2023-03-23T08:21:21.050Z,99929.59
2023-03-23T08:22:26.442Z,99922.98
2023-03-23T08:23:32.020Z,99929.52
2023-03-23T08:24:37.355Z,99926.32
2023-03-23T08:25:43.134Z,99920.28
2023-03-23T08:26:48.647Z,99924.41
2023-03-23T08:27:54.028Z,99922.96
2023-03-23T08:28:59.661Z,99927.09
2023-03-23T08:30:04.979Z,99918.05
2023-03-23T08:31:10.326Z,99924.98
2023-03-23T08:32:15.684Z,99929.84
2023-03-23T08:33:21.014Z,99921.23
2023-03-23T08:34:26.394Z,99920.42
2023-03-23T08:35:31.736Z,99917.41
2023-03-23T08:36:37.558Z,99913.06
2023-03-23T08:37:45.188Z,99920.5
2023-03-23T08:38:50.526Z,99914.95
2023-03-23T08:39:56.350Z,99922.66
2023-03-23T08:41:01.769Z,99917.22
2023-03-23T08:42:07.115Z,99921.08
2023-03-23T08:43:12.463Z,99927.77
2023-03-23T08:44:17.786Z,99931.78
2023-03-23T08:45:23.186Z,99919.08
2023-03-23T08:46:28.550Z,99924.84
2023-03-23T08:47:33.946Z,99925.98
2023-03-23T08:48:39.612Z,99924.08
2023-03-23T08:49:44.945Z,99927.58
2023-03-23T08:50:50.287Z,99928.67
2023-03-23T08:51:55.624Z,99935.13
2023-03-23T08:53:00.989Z,99925.15
2023-03-23T08:54:06.324Z,99933.94
2023-03-23T08:55:11.667Z,99935.28
2023-03-23T08:56:17.034Z,99921.3
2023-03-23T08:57:22.361Z,99919.95
2023-03-23T08:58:27.744Z,99925.75
2023-03-23T08:59:33.073Z,99923.4
2023-03-23T09:00:48.448Z,99924.9
2023-03-23T09:01:55.324Z,99915.53
2023-03-23T09:03:03.725Z,99917.2
2023-03-23T09:04:09.115Z,99917.11
2023-03-23T09:05:14.442Z,99927.75
2023-03-23T09:06:19.810Z,99906.89
2023-03-23T09:07:25.241Z,99918.81
2023-03-23T09:08:30.563Z,99928.44
2023-03-23T09:09:35.902Z,99926.41
2023-03-23T09:10:41.244Z,99921.9
2023-03-23T09:11:46.569Z,99922.83
2023-03-23T09:12:51.957Z,99937.12
2023-03-23T09:13:57.727Z,99933.02
2023-03-23T09:15:03.134Z,99935.02
2023-03-23T09:16:08.479Z,99938.2
2023-03-23T09:17:13.854Z,99930.58
2023-03-23T09:18:19.201Z,99933.78
2023-03-23T09:19:24.552Z,99922.14
2023-03-23T09:20:29.927Z,99938.81
2023-03-23T09:21:35.263Z,99936.02
2023-03-23T09:22:40.623Z,99941.89
2023-03-23T09:23:45.944Z,99939.82
2023-03-23T09:24:52.336Z,99941.16
2023-03-23T09:25:58.440Z,99928.67
2023-03-23T09:27:03.762Z,99947.74
2023-03-23T09:28:09.090Z,99934.27
2023-03-23T09:29:14.456Z,99941.63
2023-03-23T09:30:19.821Z,99931.44
2023-03-23T09:31:25.204Z,99936.27
2023-03-23T09:32:30.590Z,99937.61
2023-03-23T09:33:35.935Z,99939.23
2023-03-23T09:34:51.098Z,99936.62
2023-03-23T09:35:56.565Z,99944.99
2023-03-23T09:37:01.973Z,99935.34
2023-03-23T09:38:07.350Z,99941.98
2023-03-23T09:39:12.700Z,99941.63
2023-03-23T09:40:18.063Z,99939.31
2023-03-23T09:41:23.413Z,99937.28
2023-03-23T09:42:28.737Z,99938.54
2023-03-23T09:43:34.107Z,99936.46
2023-03-23T09:44:39.480Z,99937.28
2023-03-23T09:45:45.079Z,99953.02
2023-03-23T09:46:50.459Z,99946.84
2023-03-23T09:47:55.791Z,99945.83
2023-03-23T09:49:01.187Z,99954.77
2023-03-23T09:50:08.763Z,99949.52
2023-03-23T09:51:14.105Z,99948.75
2023-03-23T09:52:19.478Z,99955.37
2023-03-23T09:53:24.869Z,99961.32
2023-03-23T09:54:30.250Z,99958.72
2023-03-23T09:55:35.578Z,99955.37
2023-03-23T09:56:41.070Z,99966.16
2023-03-23T09:57:46.441Z,99966.16
2023-03-23T09:58:51.915Z,99967.77
2023-03-23T09:59:57.306Z,99969.44
2023-03-23T10:01:02.771Z,99970.61
2023-03-23T10:02:08.141Z,99975.72
2023-03-23T10:03:13.619Z,99978.64
2023-03-23T10:04:18.986Z,99987.58
2023-03-23T10:05:24.535Z,99970.69
2023-03-23T10:06:29.897Z,99981
2023-03-23T10:07:35.543Z,99981.81
2023-03-23T10:08:51.547Z,99996.73
2023-03-23T10:10:01.628Z,99987.84
2023-03-23T10:11:07.022Z,99984.68
2023-03-23T10:12:12.379Z,100008.94
2023-03-23T10:13:17.806Z,100005.84
2023-03-23T10:14:23.217Z,100000.98
2023-03-23T10:15:28.601Z,100003.58
2023-03-23T10:16:34.004Z,99997.48
2023-03-23T10:17:39.416Z,100002.84
2023-03-23T10:18:44.841Z,100001.09
2023-03-23T10:19:50.215Z,100007.79
2023-03-23T10:20:55.624Z,100004.7
2023-03-23T10:22:00.995Z,99984.34
2023-03-23T10:23:07.420Z,100003.66
2023-03-23T10:24:12.775Z,100000.98
2023-03-23T10:25:18.178Z,100003.25
2023-03-23T10:26:23.596Z,99996.97
2023-03-23T10:27:28.935Z,99999.56
2023-03-23T10:28:34.319Z,100003.91
2023-03-23T10:29:39.702Z,100007.59
2023-03-23T10:30:45.098Z,99988.25
2023-03-23T10:31:53.012Z,100007.84
2023-03-23T10:33:01.541Z,100010.12
2023-03-23T10:34:07.049Z,100012.69
2023-03-23T10:35:12.410Z,100010.45
2023-03-23T10:36:17.832Z,100002.98
2023-03-23T10:37:23.301Z,100011.95
2023-03-23T10:38:28.699Z,100008.26
2023-03-23T10:39:34.103Z,100009.52
2023-03-23T10:40:39.532Z,100019.14
2023-03-23T10:41:44.922Z,100014.47
2023-03-23T10:42:50.291Z,100025.66
2023-03-23T10:43:55.674Z,100037.72
2023-03-23T10:45:01.033Z,100017.98
2023-03-23T10:46:06.826Z,100023.6
2023-03-23T10:47:12.325Z,100016.56
2023-03-23T10:48:17.700Z,100020.77
2023-03-23T10:49:23.080Z,100015.62
2023-03-23T10:50:28.494Z,100031.2
2023-03-23T10:51:34.160Z,100020.64
2023-03-23T10:52:39.489Z,100021.31
2023-03-23T10:53:44.878Z,100025.59
2023-03-23T10:54:50.260Z,100024.78
2023-03-23T10:55:55.774Z,100018.31
2023-03-23T10:57:04.021Z,100030.94
2023-03-23T10:58:09.487Z,100026.41
2023-03-23T10:59:15.033Z,100022.31
2023-03-23T11:00:20.553Z,100034.03
2023-03-23T11:01:26.308Z,100029.52
2023-03-23T11:02:31.676Z,100033.09
2023-03-23T11:03:37.076Z,100041.66
2023-03-23T11:04:42.506Z,100043.48
2023-03-23T11:05:47.866Z,100032.94
2023-03-23T11:06:53.285Z,100026.58
2023-03-23T11:07:58.901Z,100037.11
2023-03-23T11:09:04.276Z,100029.77
2023-03-23T11:10:09.646Z,100031.76
2023-03-23T11:11:15.074Z,100028.27
2023-03-23T11:12:20.861Z,100032.2
2023-03-23T11:13:26.224Z,100032.77
2023-03-23T11:14:31.638Z,100035.04
2023-03-23T11:15:36.990Z,100035.11
2023-03-23T11:16:42.376Z,100032.44
2023-03-23T11:17:47.809Z,100035.9
2023-03-23T11:18:53.240Z,100036.97
2023-03-23T11:19:58.610Z,100035.22
2023-03-23T11:21:03.964Z,100034.78
2023-03-23T11:22:09.371Z,100036.56
2023-03-23T11:23:14.730Z,100037.57
2023-03-23T11:24:20.101Z,100037.05
2023-03-23T11:25:25.537Z,100039.73
2023-03-23T11:26:30.933Z,100046.34
2023-03-23T11:27:36.347Z,100041.59
2023-03-23T11:28:41.758Z,100035.9
2023-03-23T11:29:58.369Z,100035.98
2023-03-23T11:31:03.910Z,100032.38
2023-03-23T11:32:09.357Z,100034.31
2023-03-23T11:33:14.742Z,100038.41
2023-03-23T11:34:20.158Z,100032.56
2023-03-23T11:35:25.715Z,100040.41
2023-03-23T11:36:31.242Z,100030.7
2023-03-23T11:37:36.611Z,100028.16
2023-03-23T11:38:41.980Z,100035.93
2023-03-23T11:39:47.404Z,100022.63
2023-03-23T11:40:52.788Z,100012.51
2023-03-23T11:42:10.390Z,100018.62
2023-03-23T11:43:15.748Z,100028.23
2023-03-23T11:44:21.544Z,100009.48
2023-03-23T11:45:26.936Z,100029.48
2023-03-23T11:46:32.338Z,100028.7
2023-03-23T11:47:37.708Z,100029.14
2023-03-23T11:48:43.073Z,100024.13
2023-03-23T11:49:48.499Z,100025.19
2023-03-23T11:50:53.871Z,100023.58
2023-03-23T11:51:59.246Z,100022.05
2023-03-23T11:53:04.629Z,100026
2023-03-23T11:54:10.010Z,100022.16
2023-03-23T11:55:15.467Z,100027.59
2023-03-23T11:56:20.947Z,100016.8
2023-03-23T11:57:26.375Z,100016.55
2023-03-23T11:58:31.748Z,100006.98
2023-03-23T11:59:37.140Z,100018.02
2023-03-23T12:00:42.522Z,100013.59
2023-03-23T12:01:47.955Z,100009.98
2023-03-23T12:02:53.367Z,100013.52
2023-03-23T12:03:58.753Z,99998.27
2023-03-23T12:05:04.140Z,100002.73
2023-03-23T12:06:09.539Z,100000.13
2023-03-23T12:07:15.074Z,99997.86
2023-03-23T12:08:21.448Z,100008.98
2023-03-23T12:09:27.038Z,100002.97
2023-03-23T12:12:01.500Z,100008.16
2023-03-23T12:13:06.883Z,100003.97
2023-03-23T12:14:13.412Z,100004.83
2023-03-23T12:15:18.799Z,100004.64
2023-03-23T12:16:24.185Z,100011.77
2023-03-23T12:17:29.599Z,100011.33
2023-03-23T12:18:34.958Z,100016.61
2023-03-23T12:19:40.352Z,100008.98
2023-03-23T12:20:46.737Z,100000.95
2023-03-23T12:21:52.137Z,100006.41
2023-03-23T12:22:57.492Z,100012.26
2023-03-23T12:24:05.793Z,100007.91
2023-03-23T12:25:11.774Z,100000.8
2023-03-23T12:26:17.254Z,99999.39
2023-03-23T12:27:22.598Z,100009.17
2023-03-23T12:28:28.008Z,100003.89
2023-03-23T12:29:33.355Z,100009.5
2023-03-23T12:30:38.699Z,100001.97
2023-03-23T12:32:49.393Z,99999.22
2023-03-23T12:33:54.742Z,99994.38
2023-03-23T12:35:00.443Z,100000.89
2023-03-23T12:36:05.983Z,99988.77
2023-03-23T12:37:11.366Z,99984.68
2023-03-23T12:38:16.726Z,99994.95
2023-03-23T12:39:22.101Z,99997.22
2023-03-23T12:40:27.454Z,99996.89
2023-03-23T12:41:32.804Z,99987.44
2023-03-23T12:42:38.164Z,99995.95
2023-03-23T12:43:43.496Z,99996.81
2023-03-23T12:44:48.828Z,100003.42
2023-03-23T12:45:54.261Z,99993.28
2023-03-23T12:46:59.620Z,99996.15
2023-03-23T12:48:04.973Z,99992.54
2023-03-23T12:49:10.341Z,99998.23
2023-03-23T12:50:15.679Z,100000.57